Time;durP1;ratioP1;P1;durP2;ratioP2;P2;SDS_P1;SDS_P2;PMS_P1;PMS_P2;Temp;Humidity;BMP_temperature;BMP_pressure;BME280_temperature;BME280_humidity;BME280_pressure;Samples;Min_cycle;Max_cycle;Signal;HPM_P1;HPM_P2
2022/11/19 00:01:12;;;;;;;7.93;4.82;;;10.90;99.90;;;;;;5010851;28;20038;-50
2022/11/19 00:03:40;;;;;;;9.30;5.22;;;11.00;99.90;;;;;;5024522;28;20073;-52
2022/11/19 00:06:07;;;;;;;10.35;5.10;;;10.90;99.90;;;;;;5012295;28;20069;-51
2022/11/19 00:08:33;;;;;;;6.88;5.18;;;10.80;99.90;;;;;;5027635;28;20046;-52
2022/11/19 00:11:08;;;;;;;6.13;4.50;;;10.80;99.90;;;;;;5006737;28;20030;-52
2022/11/19 00:13:34;;;;;;;6.72;4.70;;;10.70;99.90;;;;;;5010188;28;20034;-52
2022/11/19 00:16:01;;;;;;;6.72;4.78;;;10.70;99.90;;;;;;5011119;28;20030;-51
2022/11/19 00:18:27;;;;;;;6.50;4.18;;;10.70;99.90;;;;;;5012480;28;20030;-53
2022/11/19 00:20:55;;;;;;;5.38;4.25;;;10.70;99.90;;;;;;5006605;28;20405;-52
2022/11/19 00:23:21;;;;;;;4.80;4.07;;;10.70;99.90;;;;;;5004515;28;20386;-52
2022/11/19 00:25:47;;;;;;;5.20;4.32;;;10.70;99.90;;;;;;5004669;28;20042;-52
2022/11/19 00:28:13;;;;;;;5.50;4.05;;;10.60;99.90;;;;;;5009330;28;20084;-51
2022/11/19 00:30:39;;;;;;;34.20;17.80;;;10.80;99.90;;;;;;5036206;28;20053;-52
2022/11/19 00:33:04;;;;;;;45.75;19.63;;;10.70;99.90;;;;;;5013310;28;20026;-52
2022/11/19 00:35:31;;;;;;;49.10;21.60;;;10.50;99.90;;;;;;5010080;28;20029;-52
2022/11/19 00:37:56;;;;;;;31.02;13.55;;;10.50;99.90;;;;;;5009185;28;20096;-52
2022/11/19 00:40:22;;;;;;;91.53;39.85;;;10.40;99.90;;;;;;5005291;28;20504;-52
2022/11/19 00:43:45;;;;;;;27.33;15.15;;;10.40;99.90;;;;;;5008738;28;20054;-52
2022/11/19 00:45:33;;;;;;;8.63;5.65;;;10.40;99.90;;;;;;5006182;28;20033;-53
2022/11/19 00:47:59;;;;;;;7.80;5.07;;;10.30;99.90;;;;;;5009178;28;20469;-51
2022/11/19 00:50:25;;;;;;;7.43;4.75;;;10.10;99.90;;;;;;5005481;28;20466;-51
2022/11/19 00:52:50;;;;;;;12.15;6.82;;;9.80;99.90;;;;;;5026162;28;20038;-52
2022/11/19 00:55:16;;;;;;;8.80;6.35;;;9.70;99.90;;;;;;5010148;28;20049;-51
2022/11/19 00:57:42;;;;;;;7.03;5.10;;;9.60;99.90;;;;;;5008504;28;20034;-51
2022/11/19 01:00:08;;;;;;;7.75;5.30;;;9.70;99.90;;;;;;5002794;28;20029;-52
2022/11/19 01:02:34;;;;;;;7.95;5.35;;;9.70;99.90;;;;;;5024662;28;20051;-51
2022/11/19 01:05:00;;;;;;;9.02;5.88;;;9.70;99.90;;;;;;5010044;28;20057;-51
2022/11/19 01:07:25;;;;;;;8.40;5.55;;;9.70;99.90;;;;;;5009653;28;20033;-51
2022/11/19 01:09:51;;;;;;;8.43;6.63;;;9.80;99.90;;;;;;5009831;28;20112;-52
2022/11/19 01:12:17;;;;;;;9.40;5.80;;;9.80;99.90;;;;;;5024311;28;20046;-52
2022/11/19 01:14:42;;;;;;;7.22;5.35;;;9.70;99.90;;;;;;5004447;28;20030;-51
2022/11/19 01:17:08;;;;;;;7.57;5.38;;;9.70;99.90;;;;;;5038617;28;20472;-51
2022/11/19 01:19:34;;;;;;;9.98;6.15;;;9.60;99.90;;;;;;5022413;28;20030;-52
2022/11/19 01:21:59;;;;;;;8.40;5.88;;;9.50;99.90;;;;;;5009102;28;20042;-51
2022/11/19 01:24:25;;;;;;;8.70;6.25;;;9.20;99.90;;;;;;5034267;28;20089;-51
2022/11/19 01:26:51;;;;;;;9.20;6.93;;;8.80;99.90;;;;;;5009189;28;20129;-51
2022/11/19 01:29:17;;;;;;;9.23;7.10;;;8.70;99.90;;;;;;5007406;28;20070;-52
2022/11/19 01:31:42;;;;;;;9.48;7.63;;;8.70;99.90;;;;;;5020482;28;20041;-53
2022/11/19 01:34:08;;;;;;;12.93;7.72;;;8.40;99.90;;;;;;5009052;28;20036;-51
2022/11/19 01:36:35;;;;;;;10.80;7.88;;;;;;;;;;5010934;28;20509;-51
2022/11/19 01:39:01;;;;;;;8.45;6.38;;;8.40;99.90;;;;;;5006991;28;20462;-51
2022/11/19 01:41:31;;;;;;;8.95;5.88;;;8.40;99.90;;;;;;5007293;28;20061;-52
2022/11/19 01:44:03;;;;;;;10.52;6.32;;;8.20;99.90;;;;;;5005374;28;20022;-53
2022/11/19 01:46:31;;;;;;;9.43;6.80;;;8.50;99.90;;;;;;5007281;28;20432;-52
2022/11/19 01:49:03;;;;;;;8.02;6.15;;;8.20;99.90;;;;;;5008448;28;20280;-51
2022/11/19 01:51:36;;;;;;;11.57;8.68;;;8.30;99.90;;;;;;5006151;28;20491;-52
2022/11/19 01:54:17;;;;;;;14.65;8.30;;;8.40;99.90;;;;;;5009733;28;20036;-51
2022/11/19 01:56:43;;;;;;;11.68;8.68;;;8.50;99.90;;;;;;5008162;28;20040;-51
2022/11/19 01:59:14;;;;;;;10.20;6.13;;;8.40;99.90;;;;;;5012774;28;20029;-51
2022/11/19 02:01:42;;;;;;;8.88;6.57;;;8.20;99.90;;;;;;5009877;28;20398;-51
2022/11/19 02:04:10;;;;;;;9.52;5.93;;;8.20;99.90;;;;;;5013940;28;20033;-51
2022/11/19 02:06:37;;;;;;;7.90;5.30;;;8.20;99.90;;;;;;5011936;28;20109;-52
2022/11/19 02:09:03;;;;;;;8.95;5.90;;;8.30;99.90;;;;;;5012179;28;20056;-52
2022/11/19 02:11:41;;;;;;;7.07;4.78;;;8.40;99.90;;;;;;5011960;28;20375;-52
2022/11/19 02:14:19;;;;;;;10.63;6.38;;;8.30;99.90;;;;;;5009820;28;20553;-51
2022/11/19 02:17:16;;;;;;;7.88;5.80;;;8.30;99.90;;;;;;5009407;28;20032;-51
2022/11/19 02:20:19;;;;;;;10.48;7.22;;;8.20;99.90;;;;;;5009856;28;20548;-52
2022/11/19 02:22:57;;;;;;;8.68;6.75;;;8.10;99.90;;;;;;5015338;28;20034;-51
2022/11/19 02:25:37;;;;;;;11.40;8.07;;;8.20;99.90;;;;;;5027363;28;20474;-51
2022/11/19 02:28:30;;;;;;;9.90;6.50;;;8.30;99.90;;;;;;5010517;28;20084;-52
2022/11/19 02:31:20;;;;;;;14.93;10.25;;;8.50;99.90;;;;;;5012562;28;20108;-51
2022/11/19 02:33:57;;;;;;;11.18;8.38;;;8.50;99.90;;;;;;5011225;28;20069;-51
2022/11/19 02:36:35;;;;;;;10.43;7.65;;;8.90;99.90;;;;;;5038919;28;20035;-51
2022/11/19 02:39:03;;;;;;;10.68;6.82;;;8.80;99.90;;;;;;5006772;28;20116;-51
2022/11/19 02:41:35;;;;;;;8.48;6.72;;;8.60;99.90;;;;;;5011201;28;20026;-51
2022/11/19 02:47:33;;;;;;;11.38;7.72;;;8.70;99.90;;;;;;5007009;28;20045;-51
2022/11/19 02:50:07;;;;;;;8.10;5.80;;;8.90;99.90;;;;;;5011650;28;20541;-51
2022/11/19 02:52:34;;;;;;;7.45;5.85;;;8.80;99.90;;;;;;5009523;28;20726;-51
2022/11/19 02:55:00;;;;;;;10.30;6.95;;;8.70;99.90;;;;;;5015275;28;20365;-51
2022/11/19 02:57:25;;;;;;;7.45;5.75;;;8.60;99.90;;;;;;5009190;28;20038;-51
2022/11/19 03:05:33;;;;;;;16.23;8.93;;;8.20;99.90;;;;;;5012981;28;19963;-51
2022/11/19 03:07:59;;;;;;;14.32;8.93;;;;;;;;;;5011378;28;20033;-51
2022/11/19 03:10:29;;;;;;;14.50;9.43;;;;;;;;;;5010761;28;20034;-51
2022/11/19 03:16:40;;;;;;;15.95;10.10;;;;;;;;;;5007963;28;20485;-51
2022/11/19 03:18:55;;;;;;;27.15;14.35;;;8.20;99.90;;;;;;5010408;28;20052;-55
2022/11/19 03:21:53;;;;;;;35.78;17.15;;;8.20;99.90;;;;;;5007964;28;20042;-52
2022/11/19 03:24:28;;;;;;;18.08;10.20;;;;;;;;;;4972407;28;20486;-51
2022/11/19 03:27:33;;;;;;;15.85;9.38;;;8.10;99.90;;;;;;4970746;28;20039;-51
2022/11/19 03:30:00;;;;;;;14.57;8.48;;;8.10;99.90;;;;;;4933942;29;20487;-52
2022/11/19 03:32:34;;;;;;;16.08;8.68;;;8.20;99.90;;;;;;4932786;29;20043;-52
2022/11/19 03:35:11;;;;;;;11.50;7.43;;;8.00;99.90;;;;;;4934404;29;20036;-51
2022/11/19 03:37:39;;;;;;;15.23;8.30;;;8.00;99.90;;;;;;4931552;29;20036;-51
2022/11/19 03:40:08;;;;;;;18.73;10.73;;;8.00;99.90;;;;;;4933431;29;20445;-52
2022/11/19 03:42:34;;;;;;;11.18;7.50;;;8.10;99.90;;;;;;4917862;29;20043;-51
2022/11/19 03:45:11;;;;;;;11.05;6.95;;;8.00;99.90;;;;;;4931717;29;20032;-51
2022/11/19 03:47:40;;;;;;;10.43;6.60;;;8.10;99.90;;;;;;4932349;29;20035;-51
2022/11/19 03:50:24;;;;;;;11.23;7.28;;;8.00;99.90;;;;;;4931477;29;20176;-51
2022/11/19 03:52:50;;;;;;;14.25;8.50;;;8.20;99.90;;;;;;4930650;29;20071;-51
2022/11/19 03:55:15;;;;;;;10.82;6.55;;;8.10;99.90;;;;;;4922892;29;20068;-51
2022/11/19 03:57:42;;;;;;;16.20;9.88;;;8.20;99.90;;;;;;4929677;29;20039;-51
2022/11/19 04:00:08;;;;;;;11.27;7.28;;;8.30;99.90;;;;;;4929509;29;20520;-52
2022/11/19 04:02:34;;;;;;;13.15;8.20;;;8.40;99.90;;;;;;4967965;28;20133;-51
2022/11/19 04:05:00;;;;;;;11.25;7.22;;;8.60;99.90;;;;;;4942873;28;20555;-51
2022/11/19 04:07:26;;;;;;;9.55;7.85;;;8.60;99.90;;;;;;5005898;28;20069;-51
2022/11/19 04:09:51;;;;;;;11.50;8.45;;;8.70;99.90;;;;;;5009102;28;20030;-51
2022/11/19 04:12:20;;;;;;;12.40;7.28;;;8.70;99.90;;;;;;5010839;28;20029;-51
2022/11/19 04:14:47;;;;;;;9.55;6.95;;;;;;;;;;5007367;28;20065;-51
2022/11/19 04:17:13;;;;;;;7.57;5.10;;;8.00;99.90;;;;;;5010825;28;20030;-52
2022/11/19 04:19:38;;;;;;;8.50;6.30;;;7.80;99.90;;;;;;5007804;28;20496;-51
2022/11/19 04:22:04;;;;;;;9.35;6.50;;;8.00;99.90;;;;;;5012459;28;20081;-51
2022/11/19 04:24:30;;;;;;;7.55;5.32;;;7.90;99.90;;;;;;5027525;28;20041;-52
2022/11/19 04:26:56;;;;;;;7.82;5.95;;;7.80;99.90;;;;;;5006569;28;20032;-51
2022/11/19 04:29:22;;;;;;;9.02;6.00;;;7.80;99.90;;;;;;5007894;28;20041;-51
2022/11/19 04:31:48;;;;;;;9.85;5.60;;;7.60;99.90;;;;;;5006259;28;20029;-51
2022/11/19 04:34:14;;;;;;;8.90;5.38;;;7.50;99.90;;;;;;5023809;28;20038;-51
2022/11/19 04:36:41;;;;;;;8.27;5.65;;;7.50;99.90;;;;;;5012655;28;20481;-54
2022/11/19 04:39:08;;;;;;;8.95;5.90;;;7.30;99.90;;;;;;5007754;28;20038;-51
2022/11/19 04:41:34;;;;;;;7.45;5.55;;;7.30;99.90;;;;;;5011220;28;20061;-52
2022/11/19 04:44:00;;;;;;;9.68;5.88;;;7.30;99.90;;;;;;5008907;28;20471;-51
2022/11/19 04:46:26;;;;;;;8.90;5.75;;;7.40;99.90;;;;;;5008469;28;20048;-51
2022/11/19 04:48:52;;;;;;;9.98;6.55;;;7.50;99.90;;;;;;5012463;28;20466;-51
2022/11/19 04:51:17;;;;;;;8.98;6.28;;;7.40;99.90;;;;;;5009746;28;20030;-51
2022/11/19 04:53:43;;;;;;;10.38;6.60;;;7.60;99.90;;;;;;5036153;28;20112;-51
2022/11/19 04:56:09;;;;;;;7.72;5.60;;;7.70;99.90;;;;;;5008833;28;20026;-51
2022/11/19 04:58:36;;;;;;;8.55;6.70;;;7.70;99.90;;;;;;5008950;28;20375;-51
2022/11/19 05:01:02;;;;;;;5.57;3.73;;;7.80;99.90;;;;;;5025123;28;20133;-51
2022/11/19 05:03:28;;;;;;;11.05;5.78;;;7.40;99.90;;;;;;5025957;28;20058;-51
2022/11/19 05:05:54;;;;;;;7.18;5.65;;;7.50;99.90;;;;;;5026921;28;20116;-50
2022/11/19 05:08:20;;;;;;;8.73;6.30;;;7.70;99.90;;;;;;5006798;28;20023;-51
2022/11/19 05:10:46;;;;;;;11.88;9.70;;;7.80;99.90;;;;;;5022877;28;20030;-51
2022/11/19 05:13:12;;;;;;;9.57;6.80;;;8.00;99.90;;;;;;5040026;28;20486;-51
2022/11/19 05:15:38;;;;;;;8.60;6.90;;;8.10;99.90;;;;;;5005750;28;20030;-51
2022/11/19 05:18:04;;;;;;;10.82;7.13;;;;;;;;;;5008170;28;20037;-51
2022/11/19 05:20:29;;;;;;;10.57;7.85;;;8.20;99.90;;;;;;5010198;28;20466;-51
2022/11/19 05:22:55;;;;;;;13.77;11.07;;;8.30;99.90;;;;;;5005601;28;20030;-51
2022/11/19 05:25:21;;;;;;;12.00;8.70;;;8.40;99.90;;;;;;5007025;28;20040;-51
2022/11/19 05:27:47;;;;;;;13.27;7.53;;;8.40;99.90;;;;;;5011974;28;20048;-51
2022/11/19 05:30:13;;;;;;;12.93;7.45;;;8.20;99.90;;;;;;5010921;28;20022;-51
2022/11/19 05:32:38;;;;;;;11.98;7.55;;;8.30;99.90;;;;;;5023749;28;20486;-53
2022/11/19 05:35:05;;;;;;;9.00;7.15;;;;;;;;;;5012510;28;20026;-51
2022/11/19 05:37:31;;;;;;;10.30;6.55;;;;;;;;;;5002416;28;20018;-52
2022/11/19 05:39:57;;;;;;;8.60;6.25;;;8.70;99.90;;;;;;5020089;28;20046;-51
2022/11/19 05:42:23;;;;;;;10.73;6.80;;;8.40;99.90;;;;;;5007026;28;20192;-51
2022/11/19 05:44:49;;;;;;;9.98;7.50;;;;;;;;;;5008437;28;20030;-51
2022/11/19 05:47:15;;;;;;;10.15;8.32;;;8.00;99.90;;;;;;5006390;28;20037;-51
2022/11/19 05:49:42;;;;;;;11.38;8.63;;;;;;;;;;5005499;28;20106;-52
2022/11/19 05:52:07;;;;;;;35.30;24.27;;;8.50;99.90;;;;;;5009216;28;20390;-51
2022/11/19 05:54:33;;;;;;;11.52;8.23;;;;;;;;;;5006887;28;20034;-51
2022/11/19 05:56:59;;;;;;;11.10;8.15;;;;;;;;;;5004883;28;20022;-51
2022/11/19 05:59:26;;;;;;;10.88;7.70;;;;;;;;;;5010713;28;20034;-51
2022/11/19 06:01:51;;;;;;;10.55;7.80;;;8.50;99.90;;;;;;5008879;28;20045;-52
2022/11/19 06:04:17;;;;;;;11.00;8.02;;;8.60;99.90;;;;;;5009465;28;20797;-51
2022/11/19 06:06:43;;;;;;;11.00;8.57;;;8.80;99.90;;;;;;5025774;28;20473;-51
2022/11/19 06:09:08;;;;;;;16.45;10.75;;;8.70;99.90;;;;;;5023623;28;20030;-52
2022/11/19 06:11:46;;;;;;;13.40;8.73;;;9.00;99.90;;;;;;5004287;28;20026;-52
2022/11/19 06:14:17;;;;;;;12.60;8.40;;;9.00;99.90;;;;;;5009543;28;20632;-52
2022/11/19 06:16:43;;;;;;;17.55;15.45;;;9.10;99.90;;;;;;5005348;28;20053;-51
2022/11/19 06:19:08;;;;;;;14.00;10.25;;;9.40;99.90;;;;;;5004070;28;20473;-52
2022/11/19 06:21:34;;;;;;;12.13;9.85;;;9.00;99.90;;;;;;5009618;28;20173;-52
2022/11/19 06:24:00;;;;;;;14.75;10.32;;;9.10;99.90;;;;;;5041392;28;20049;-52
2022/11/19 06:26:28;;;;;;;14.20;10.75;;;9.20;99.90;;;;;;5003670;28;20022;-52
2022/11/19 06:28:54;;;;;;;12.95;10.02;;;8.90;99.90;;;;;;5009161;28;20034;-52
2022/11/19 06:31:20;;;;;;;18.48;14.25;;;8.90;99.90;;;;;;5006151;28;20026;-52
2022/11/19 06:33:46;;;;;;;19.02;11.13;;;9.10;99.90;;;;;;5011460;28;20470;-51
2022/11/19 06:36:12;;;;;;;13.32;10.27;;;9.10;99.90;;;;;;5025468;28;20062;-52
2022/11/19 06:38:38;;;;;;;27.60;18.88;;;9.10;99.90;;;;;;5006483;28;20021;-53
2022/11/19 06:41:04;;;;;;;14.57;11.93;;;9.20;99.90;;;;;;5012184;28;20478;-51
2022/11/19 06:43:30;;;;;;;13.32;10.68;;;9.00;99.90;;;;;;5012691;28;20038;-52
2022/11/19 06:45:55;;;;;;;15.55;9.73;;;9.10;99.90;;;;;;5025596;28;20042;-52
2022/11/19 06:48:21;;;;;;;12.60;9.60;;;8.90;99.90;;;;;;5040221;28;20042;-54
2022/11/19 06:50:47;;;;;;;15.23;8.98;;;9.10;99.90;;;;;;5012549;28;20034;-52
2022/11/19 06:53:13;;;;;;;16.50;11.25;;;8.80;99.90;;;;;;5013870;28;20088;-52
2022/11/19 06:55:39;;;;;;;17.02;13.75;;;9.00;99.90;;;;;;5029240;28;20049;-53
2022/11/19 06:58:06;;;;;;;24.35;18.35;;;8.90;99.90;;;;;;5038241;28;20386;-52
2022/11/19 07:00:33;;;;;;;24.67;18.02;;;9.10;99.90;;;;;;5005552;28;20034;-52
2022/11/19 07:02:59;;;;;;;22.05;16.23;;;9.10;99.90;;;;;;5008718;28;20034;-52
2022/11/19 07:05:25;;;;;;;19.75;13.73;;;9.30;99.90;;;;;;5009768;28;20092;-53
2022/11/19 07:07:51;;;;;;;13.80;11.40;;;9.60;99.90;;;;;;5025031;28;20042;-52
2022/11/19 07:10:17;;;;;;;16.00;12.52;;;9.40;99.90;;;;;;5010492;28;20096;-52
2022/11/19 07:12:43;;;;;;;17.88;14.77;;;;;;;;;;5006858;28;20266;-52
2022/11/19 07:15:09;;;;;;;16.73;12.85;;;9.70;99.90;;;;;;4994442;28;20405;-51
2022/11/19 07:17:36;;;;;;;14.65;11.55;;;9.70;99.90;;;;;;5010645;28;20038;-52
2022/11/19 07:20:05;;;;;;;12.57;10.93;;;9.90;99.90;;;;;;5004361;28;20034;-51
2022/11/19 07:22:31;;;;;;;13.77;11.27;;;10.10;99.90;;;;;;5010047;28;20105;-51
2022/11/19 07:24:56;;;;;;;15.85;12.85;;;10.30;99.90;;;;;;5008478;28;20490;-51
2022/11/19 07:27:22;;;;;;;15.35;13.13;;;10.00;99.90;;;;;;5007291;28;20131;-52
2022/11/19 07:29:48;;;;;;;15.18;12.55;;;9.90;99.90;;;;;;5010500;28;20402;-51
2022/11/19 07:32:14;;;;;;;15.43;12.23;;;10.00;99.90;;;;;;5004891;28;20127;-51
2022/11/19 07:34:39;;;;;;;15.80;12.73;;;10.00;99.90;;;;;;5008783;28;20034;-52
2022/11/19 07:37:05;;;;;;;12.07;10.68;;;9.90;99.90;;;;;;5042070;28;20052;-51
2022/11/19 07:39:31;;;;;;;13.20;10.57;;;9.80;99.90;;;;;;5025078;28;20034;-51
2022/11/19 07:44:41;;;;;;;15.52;10.35;;;9.50;99.90;;;;;;5004679;28;20057;-51
2022/11/19 07:47:07;;;;;;;14.23;10.52;;;9.50;99.90;;;;;;5006941;28;20081;-51
2022/11/19 07:49:34;;;;;;;16.40;11.75;;;9.30;99.90;;;;;;5004447;28;20030;-51
2022/11/19 07:52:00;;;;;;;17.25;13.50;;;9.60;99.90;;;;;;5008700;28;20108;-52
2022/11/19 07:54:25;;;;;;;18.48;14.00;;;9.70;99.90;;;;;;5005399;28;20065;-53
2022/11/19 07:56:51;;;;;;;19.83;16.58;;;10.00;99.90;;;;;;5001684;28;20497;-52
2022/11/19 07:59:17;;;;;;;18.83;14.65;;;10.10;99.90;;;;;;5008849;28;20045;-52
2022/11/19 08:01:43;;;;;;;14.98;12.48;;;10.20;99.90;;;;;;5009374;28;20561;-52
2022/11/19 08:04:09;;;;;;;15.20;12.05;;;10.00;99.90;;;;;;5008537;28;20030;-53
2022/11/19 08:06:35;;;;;;;14.95;11.65;;;10.10;99.90;;;;;;5010099;28;20042;-52
2022/11/19 08:09:02;;;;;;;14.93;12.10;;;10.00;99.90;;;;;;5011438;28;20032;-51
2022/11/19 08:11:28;;;;;;;23.73;15.02;;;9.90;99.90;;;;;;5007696;28;20113;-52
2022/11/19 08:13:54;;;;;;;18.13;13.63;;;9.90;99.90;;;;;;5006616;28;20515;-52
2022/11/19 08:19:08;;;;;;;17.08;12.95;;;10.20;99.90;;;;;;5003528;28;20513;-53
2022/11/19 08:21:35;;;;;;;15.90;12.48;;;10.20;99.90;;;;;;5003793;28;20133;-52
2022/11/19 08:24:02;;;;;;;14.18;9.90;;;10.40;99.90;;;;;;5009379;28;20069;-51
2022/11/19 08:26:28;;;;;;;13.52;10.07;;;10.30;99.90;;;;;;5008946;28;20022;-52
2022/11/19 08:28:54;;;;;;;15.68;11.18;;;10.20;99.90;;;;;;5006434;28;20116;-51
2022/11/19 08:31:19;;;;;;;16.60;11.90;;;10.20;99.90;;;;;;5005882;28;20117;-55
2022/11/19 08:33:45;;;;;;;18.77;13.52;;;10.10;99.90;;;;;;5007017;28;20077;-55
2022/11/19 08:36:11;;;;;;;12.13;9.32;;;10.20;99.90;;;;;;5009510;28;20505;-53
2022/11/19 08:38:37;;;;;;;9.65;8.18;;;10.20;99.90;;;;;;5011300;28;20026;-54
2022/11/19 08:43:50;;;;;;;11.73;9.45;;;10.00;99.90;;;;;;5011458;28;20104;-55
2022/11/19 08:46:16;;;;;;;11.82;7.88;;;9.90;99.90;;;;;;5007275;28;20466;-55
2022/11/19 08:48:42;;;;;;;12.35;8.07;;;10.00;99.90;;;;;;5034591;28;20048;-59
2022/11/19 08:51:12;;;;;;;12.20;9.45;;;10.20;99.90;;;;;;5009710;28;20026;-58
2022/11/19 08:53:37;;;;;;;11.82;8.75;;;10.20;99.90;;;;;;5010677;28;20077;-54
2022/11/19 08:56:04;;;;;;;8.27;6.93;;;10.10;99.90;;;;;;5008476;28;20076;-54
2022/11/19 08:58:29;;;;;;;8.98;7.18;;;10.20;99.90;;;;;;5008076;28;20060;-53
2022/11/19 09:00:55;;;;;;;10.90;8.48;;;10.30;99.90;;;;;;5004563;28;20933;-52
2022/11/19 09:03:21;;;;;;;12.32;9.07;;;10.20;99.90;;;;;;5021543;28;20076;-50
2022/11/19 09:05:47;;;;;;;11.25;8.77;;;10.30;99.90;;;;;;5016338;28;21441;-56
2022/11/19 09:08:12;;;;;;;13.52;10.02;;;10.30;99.90;;;;;;5023405;28;20038;-52
2022/11/19 09:10:39;;;;;;;16.70;10.57;;;10.30;99.90;;;;;;5003244;28;20480;-52
2022/11/19 09:13:04;;;;;;;14.38;10.20;;;10.30;99.90;;;;;;5007184;28;20069;-51
2022/11/19 09:15:30;;;;;;;10.00;7.68;;;10.30;99.90;;;;;;5008415;28;20022;-53
2022/11/19 09:17:56;;;;;;;12.70;9.50;;;10.20;99.90;;;;;;5009235;28;20047;-51
2022/11/19 09:20:22;;;;;;;13.90;10.25;;;10.40;99.90;;;;;;5023240;28;20041;-51
2022/11/19 09:22:48;;;;;;;13.77;10.18;;;10.30;99.90;;;;;;5008935;28;20092;-51
2022/11/19 09:25:14;;;;;;;11.55;8.15;;;10.40;99.90;;;;;;5004227;28;20033;-52
2022/11/19 09:27:39;;;;;;;12.00;7.90;;;10.40;99.90;;;;;;4995346;28;20422;-51
2022/11/19 09:30:07;;;;;;;8.73;6.95;;;10.40;99.90;;;;;;5022833;28;20041;-51
2022/11/19 09:32:33;;;;;;;8.77;5.82;;;10.30;99.90;;;;;;5037234;28;20045;-52
2022/11/19 09:34:59;;;;;;;8.60;6.20;;;10.30;99.90;;;;;;5006384;28;20037;-51
2022/11/19 09:37:25;;;;;;;8.00;5.90;;;10.30;99.90;;;;;;5003928;28;20368;-51
2022/11/19 09:39:51;;;;;;;10.27;6.82;;;10.30;99.90;;;;;;5001308;28;20064;-51
2022/11/19 09:42:46;;;;;;;7.32;5.97;;;10.40;99.90;;;;;;5005910;28;20403;-51
2022/11/19 09:45:28;;;;;;;7.22;5.85;;;10.40;99.90;;;;;;4993439;28;20038;-51
2022/11/19 09:48:15;;;;;;;8.43;7.15;;;10.40;99.90;;;;;;5022843;28;20417;-51
2022/11/19 09:50:59;;;;;;;8.93;6.97;;;10.30;99.90;;;;;;5008752;28;20026;-51
2022/11/19 09:53:30;;;;;;;10.88;8.27;;;10.40;99.90;;;;;;5006959;28;20034;-51
2022/11/19 09:55:58;;;;;;;11.25;6.70;;;10.50;99.90;;;;;;5004294;28;20061;-51
2022/11/19 09:58:23;;;;;;;11.70;8.63;;;10.30;99.90;;;;;;5007139;28;20030;-51
2022/11/19 10:00:49;;;;;;;9.70;7.82;;;10.30;99.90;;;;;;5009201;28;20041;-51
2022/11/19 10:03:25;;;;;;;12.45;7.10;;;10.30;99.90;;;;;;5004846;28;20050;-53
2022/11/19 10:06:02;;;;;;;9.70;8.18;;;10.20;99.90;;;;;;5004237;28;20133;-53
2022/11/19 10:08:56;;;;;;;10.85;7.70;;;10.30;99.90;;;;;;5008326;28;20076;-51
2022/11/19 10:11:33;;;;;;;12.13;8.82;;;10.30;99.90;;;;;;5004730;28;20499;-51
2022/11/19 10:14:04;;;;;;;16.38;11.13;;;10.40;99.90;;;;;;5002561;28;20564;-51
2022/11/19 10:17:08;;;;;;;12.10;8.80;;;10.50;99.90;;;;;;5010515;28;20390;-52
2022/11/19 10:19:53;;;;;;;12.77;8.70;;;10.50;99.90;;;;;;4971284;28;20040;-51
2022/11/19 10:22:34;;;;;;;13.98;10.82;;;10.50;99.90;;;;;;4974538;28;20127;-51
2022/11/19 10:25:18;;;;;;;13.25;10.05;;;10.50;99.90;;;;;;4974038;28;20106;-51
2022/11/19 10:27:48;;;;;;;16.70;11.88;;;10.40;99.90;;;;;;4974133;28;20030;-51
2022/11/19 10:30:19;;;;;;;16.45;12.15;;;10.50;99.90;;;;;;4991731;28;20039;-51
2022/11/19 10:33:00;;;;;;;15.15;11.80;;;10.50;99.90;;;;;;4952347;28;20063;-51
2022/11/19 10:36:15;;;;;;;16.48;14.05;;;10.70;99.90;;;;;;4974132;28;20027;-52
2022/11/19 10:39:02;;;;;;;16.85;13.57;;;10.90;99.90;;;;;;4932207;29;20079;-51
2022/11/19 10:41:41;;;;;;;16.05;12.18;;;11.10;99.90;;;;;;4932908;29;20059;-51
2022/11/19 10:44:36;;;;;;;13.15;9.73;;;11.10;99.90;;;;;;4919264;29;20083;-51
2022/11/19 10:47:08;;;;;;;12.25;9.32;;;11.00;99.90;;;;;;4935819;29;20190;-51
2022/11/19 10:49:38;;;;;;;13.00;8.70;;;11.00;99.90;;;;;;4935112;29;20480;-51
2022/11/19 10:52:21;;;;;;;11.63;8.57;;;11.00;99.90;;;;;;4931686;29;20139;-51
2022/11/19 10:54:49;;;;;;;10.38;9.27;;;11.00;99.90;;;;;;4934924;29;21448;-51
2022/11/19 10:57:17;;;;;;;16.20;9.73;;;11.10;99.90;;;;;;4926228;29;20075;-51
2022/11/19 10:59:45;;;;;;;13.82;9.32;;;12.10;99.90;;;;;;4927102;29;20031;-51
2022/11/19 11:02:31;;;;;;;15.10;9.77;;;11.20;99.90;;;;;;4930026;29;20683;-52
2022/11/19 11:05:07;;;;;;;14.20;9.95;;;11.20;99.90;;;;;;4968224;28;20656;-51
2022/11/19 11:07:57;;;;;;;15.98;11.90;;;11.10;99.90;;;;;;4948416;29;20503;-51
2022/11/19 11:10:33;;;;;;;14.77;10.55;;;10.90;99.90;;;;;;4952419;29;20524;-51
2022/11/19 11:16:09;;;;;;;13.68;10.25;;;11.10;99.90;;;;;;5012243;28;20100;-52
2022/11/19 11:18:39;;;;;;;13.20;9.88;;;;;;;;;;5011437;28;20038;-53
2022/11/19 11:21:09;;;;;;;14.95;11.63;;;11.30;99.90;;;;;;5012776;28;20081;-50
2022/11/19 11:23:47;;;;;;;12.35;10.20;;;11.50;99.90;;;;;;5011906;28;20045;-50
2022/11/19 11:26:19;;;;;;;15.02;10.05;;;11.20;99.90;;;;;;5011022;28;20041;-50
2022/11/19 11:29:04;;;;;;;12.75;8.77;;;11.70;99.90;;;;;;5011759;28;20124;-50
2022/11/19 11:31:32;;;;;;;18.63;12.05;;;11.20;99.90;;;;;;5012270;28;20121;-50
2022/11/19 11:33:58;;;;;;;16.13;12.73;;;11.30;99.90;;;;;;5011757;28;20902;-50
2022/11/19 11:36:26;;;;;;;13.38;9.63;;;11.40;99.90;;;;;;4979334;28;20058;-50
2022/11/19 11:38:55;;;;;;;14.15;10.02;;;11.40;99.90;;;;;;5011594;28;20457;-50
2022/11/19 11:41:42;;;;;;;12.30;10.85;;;11.40;99.90;;;;;;5011832;28;20517;-50
2022/11/19 11:44:13;;;;;;;15.98;11.52;;;11.50;99.90;;;;;;5006769;28;20077;-51
2022/11/19 11:46:47;;;;;;;14.23;10.35;;;11.90;99.90;;;;;;5011611;28;20405;-51
2022/11/19 11:49:29;;;;;;;15.18;11.68;;;;;;;;;;5011708;28;20037;-51
2022/11/19 11:52:20;;;;;;;12.65;9.65;;;11.70;99.90;;;;;;5006638;28;20036;-51
2022/11/19 11:55:23;;;;;;;13.95;10.15;;;12.00;99.90;;;;;;5010731;28;20088;-51
2022/11/19 11:57:52;;;;;;;15.35;11.52;;;12.00;99.90;;;;;;4902166;29;20176;-51
2022/11/19 12:00:33;;;;;;;13.13;9.60;;;11.80;99.90;;;;;;4934151;29;20067;-51
2022/11/19 12:03:13;;;;;;;13.90;10.77;;;11.40;99.90;;;;;;4887921;29;20526;-51
2022/11/19 12:05:41;;;;;;;17.15;12.55;;;11.20;99.90;;;;;;4933598;29;20055;-52
2022/11/19 12:08:19;;;;;;;14.98;11.70;;;11.30;99.90;;;;;;4932656;29;20242;-51
2022/11/19 12:11:13;;;;;;;18.80;14.93;;;11.20;99.90;;;;;;4932677;29;20039;-51
2022/11/19 12:14:05;;;;;;;27.73;18.27;;;11.40;99.90;;;;;;4933250;29;20185;-64
2022/11/19 12:17:00;;;;;;;19.08;13.35;;;11.30;99.90;;;;;;4933051;29;20560;-51
2022/11/19 12:19:47;;;;;;;17.38;13.07;;;11.20;99.90;;;;;;4917810;29;20127;-61
2022/11/19 12:22:46;;;;;;;15.52;13.32;;;11.20;99.90;;;;;;4933126;29;20183;-53
2022/11/19 12:25:19;;;;;;;16.70;12.63;;;11.30;99.90;;;;;;4876949;29;20044;-55
2022/11/19 12:27:59;;;;;;;16.98;13.43;;;11.20;99.90;;;;;;4882099;29;20048;-50
2022/11/19 12:31:05;;;;;;;16.92;12.05;;;11.10;99.90;;;;;;4913127;29;20044;-51
2022/11/19 12:33:58;;;;;;;13.85;11.30;;;11.20;99.90;;;;;;4894026;29;20036;-56
2022/11/19 12:36:29;;;;;;;;;;;11.20;99.90;;;;;;4891201;29;20040;-59
2022/11/19 12:39:09;;;;;;;14.67;11.90;;;11.30;99.90;;;;;;4910829;29;19911;-56
2022/11/19 12:41:57;;;;;;;13.23;11.18;;;11.20;99.90;;;;;;4895368;29;20291;-52
2022/11/19 12:44:49;;;;;;;15.07;11.95;;;11.40;99.90;;;;;;4893917;29;20048;-52
2022/11/19 12:47:41;;;;;;;18.15;12.25;;;11.30;99.90;;;;;;4894391;29;20500;-54
2022/11/19 12:50:27;;;;;;;15.88;12.57;;;11.30;99.90;;;;;;4894599;29;20052;-52
2022/11/19 12:53:05;;;;;;;13.52;10.57;;;11.30;99.90;;;;;;4893956;29;20033;-51
2022/11/19 12:55:44;;;;;;;16.70;12.18;;;11.20;99.90;;;;;;4894773;29;20076;-51
2022/11/19 12:58:40;;;;;;;17.35;12.50;;;11.20;99.90;;;;;;4895579;29;20189;-50
2022/11/19 13:01:25;;;;;;;17.27;11.68;;;11.30;99.90;;;;;;4897594;29;20551;-58
2022/11/19 13:03:57;;;;;;;14.45;11.50;;;11.20;99.90;;;;;;4950896;29;20046;-51
2022/11/19 13:06:52;;;;;;;15.57;11.82;;;11.10;99.90;;;;;;4945034;29;20169;-52
2022/11/19 13:09:37;;;;;;;16.23;12.02;;;11.20;99.90;;;;;;4912127;29;20039;-52
2022/11/19 13:12:10;;;;;;;18.38;12.85;;;11.40;99.90;;;;;;5009497;28;20104;-54
2022/11/19 13:14:42;;;;;;;17.25;13.57;;;11.60;99.90;;;;;;5022204;28;20061;-52
2022/11/19 13:17:24;;;;;;;16.25;11.02;;;11.70;99.90;;;;;;5006760;28;20041;-52
2022/11/19 13:20:01;;;;;;;18.23;13.35;;;11.50;99.90;;;;;;5009055;28;20529;-54
2022/11/19 13:22:36;;;;;;;17.52;14.25;;;11.40;99.90;;;;;;5009255;28;20034;-52
2022/11/19 13:25:15;;;;;;;21.25;15.27;;;11.40;99.90;;;;;;5006753;28;20128;-52
2022/11/19 13:27:43;;;;;;;20.67;15.73;;;11.20;99.90;;;;;;5005881;28;20072;-52
2022/11/19 13:30:25;;;;;;;21.90;15.55;;;11.30;99.90;;;;;;5008273;28;20445;-52